createdAt,value
2018-10-09T00:01:04.177Z,5.10
2018-10-09T00:03:31.588Z,5.53
2018-10-09T00:05:58.955Z,4.53
2018-10-09T00:08:26.340Z,5.53
2018-10-09T00:10:53.801Z,5.70
2018-10-09T00:13:21.208Z,4.53
2018-10-09T00:15:48.604Z,5.13
2018-10-09T00:18:16.012Z,5.30
2018-10-09T00:20:43.414Z,5.43
2018-10-09T00:23:10.789Z,5.17
2018-10-09T00:25:38.216Z,5.10
2018-10-09T00:28:05.640Z,5.07
2018-10-09T00:30:33.013Z,5.67
2018-10-09T00:33:00.435Z,5.50
2018-10-09T00:35:27.852Z,4.80
2018-10-09T00:37:55.281Z,5.30
2018-10-09T00:40:22.669Z,4.57
2018-10-09T00:42:50.129Z,5.20
2018-10-09T00:45:17.525Z,5.10
2018-10-09T00:47:44.985Z,4.80
2018-10-09T00:50:12.396Z,5.03
2018-10-09T00:52:39.958Z,5.30
2018-10-09T00:55:07.751Z,4.93
2018-10-09T00:57:35.464Z,5.50
2018-10-09T01:00:02.989Z,5.33
2018-10-09T01:02:30.400Z,5.00
2018-10-09T01:04:57.823Z,5.23
2018-10-09T01:07:25.341Z,4.90
2018-10-09T01:09:52.935Z,5.20
2018-10-09T01:12:20.349Z,5.23
2018-10-09T01:14:47.728Z,4.47
2018-10-09T01:17:15.152Z,4.90
2018-10-09T01:19:42.628Z,5.57
2018-10-09T01:22:10.029Z,4.23
2018-10-09T01:24:37.577Z,5.43
2018-10-09T01:27:05.074Z,4.77
2018-10-09T01:29:32.606Z,5.40
2018-10-09T01:31:59.979Z,5.83
2018-10-09T01:34:27.409Z,5.30
2018-10-09T01:36:54.799Z,5.17
2018-10-09T01:39:22.195Z,5.23
2018-10-09T01:41:49.622Z,5.40
2018-10-09T01:44:17.041Z,5.33
2018-10-09T01:46:44.504Z,5.50
2018-10-09T01:49:11.880Z,6.07
2018-10-09T01:51:39.283Z,5.97
2018-10-09T01:54:06.931Z,5.63
2018-10-09T01:56:34.693Z,5.80
2018-10-09T01:59:02.128Z,6.23
2018-10-09T02:01:29.571Z,5.23
2018-10-09T02:03:56.980Z,5.23
2018-10-09T02:06:24.380Z,5.87
2018-10-09T02:08:51.809Z,5.20
2018-10-09T02:11:19.202Z,5.17
2018-10-09T02:13:46.594Z,5.30
2018-10-09T02:16:14.061Z,5.07
2018-10-09T02:18:41.423Z,4.93
2018-10-09T02:21:08.816Z,5.87
2018-10-09T02:23:36.405Z,5.83
2018-10-09T02:26:03.833Z,5.50
2018-10-09T02:28:31.440Z,4.90
2018-10-09T02:30:58.819Z,5.27
2018-10-09T02:33:26.238Z,6.30
2018-10-09T02:35:53.628Z,5.73
2018-10-09T02:38:21.175Z,6.20
2018-10-09T02:40:48.593Z,5.20
2018-10-09T02:43:15.970Z,5.53
2018-10-09T02:45:43.348Z,6.27
2018-10-09T02:48:10.769Z,6.23
2018-10-09T02:50:38.178Z,6.20
2018-10-09T02:53:05.621Z,6.90
2018-10-09T02:55:33.003Z,6.23
2018-10-09T02:58:00.459Z,6.07
2018-10-09T03:00:27.924Z,5.77
2018-10-09T03:02:55.318Z,6.03
2018-10-09T03:05:22.692Z,6.43
2018-10-09T03:07:50.109Z,5.60
2018-10-09T03:10:17.489Z,6.10
2018-10-09T03:12:44.869Z,6.53
2018-10-09T03:15:12.296Z,6.33
2018-10-09T03:17:39.696Z,6.53
2018-10-09T03:20:07.156Z,6.57
2018-10-09T03:22:34.541Z,6.93
2018-10-09T03:25:02.025Z,6.70
2018-10-09T03:27:29.443Z,6.37
2018-10-09T03:29:56.840Z,6.23
2018-10-09T03:32:24.297Z,6.10
2018-10-09T03:34:51.713Z,6.30
2018-10-09T03:37:19.099Z,6.13
2018-10-09T03:39:46.546Z,5.77
2018-10-09T03:42:13.954Z,6.63
2018-10-09T03:44:41.361Z,6.57
2018-10-09T03:47:08.935Z,6.50
2018-10-09T03:49:36.550Z,5.67
2018-10-09T03:52:04.098Z,5.53
2018-10-09T03:54:31.494Z,6.30
2018-10-09T03:56:58.944Z,6.43
2018-10-09T03:59:26.320Z,6.13
2018-10-09T04:01:53.757Z,5.97
2018-10-09T04:04:21.154Z,5.87
2018-10-09T04:06:48.535Z,5.97
2018-10-09T04:09:15.962Z,5.87
2018-10-09T04:11:43.675Z,5.47
2018-10-09T04:14:11.113Z,6.77
2018-10-09T04:16:38.521Z,6.70
2018-10-09T04:19:06.012Z,5.70
2018-10-09T04:21:33.420Z,6.00
2018-10-09T04:24:00.880Z,5.43
2018-10-09T04:26:28.293Z,5.90
2018-10-09T04:28:55.697Z,5.73
2018-10-09T04:31:23.096Z,6.20
2018-10-09T04:33:50.510Z,5.60
2018-10-09T04:36:17.888Z,5.20
2018-10-09T04:38:45.286Z,6.10
2018-10-09T04:41:12.754Z,6.43
2018-10-09T04:43:40.128Z,4.97
2018-10-09T04:46:07.503Z,6.33
2018-10-09T04:48:34.983Z,6.30
2018-10-09T04:51:02.363Z,6.33
2018-10-09T04:53:29.772Z,6.43
2018-10-09T04:55:57.191Z,6.40
2018-10-09T04:58:24.699Z,6.53
2018-10-09T05:00:52.159Z,6.90
2018-10-09T05:03:19.556Z,6.63
2018-10-09T05:05:47.013Z,6.83
2018-10-09T05:08:14.369Z,6.10
2018-10-09T05:10:41.765Z,5.97
2018-10-09T05:13:09.179Z,5.83
2018-10-09T05:15:36.556Z,6.37
2018-10-09T05:18:03.940Z,6.63
2018-10-09T05:20:31.432Z,6.47
2018-10-09T05:22:58.791Z,6.23
2018-10-09T05:25:26.173Z,7.63
2018-10-09T05:27:53.583Z,6.30
2018-10-09T05:30:20.974Z,6.10
2018-10-09T05:32:48.379Z,6.97
2018-10-09T05:35:15.935Z,6.37
2018-10-09T05:37:43.348Z,6.10
2018-10-09T05:40:11.001Z,6.33
2018-10-09T05:42:38.398Z,6.43
2018-10-09T05:45:05.828Z,6.77
2018-10-09T05:47:33.267Z,6.23
2018-10-09T05:50:00.687Z,6.80
2018-10-09T05:52:28.174Z,7.20
2018-10-09T05:54:55.560Z,6.87
2018-10-09T05:57:22.960Z,7.50
2018-10-09T05:59:50.409Z,7.10
2018-10-09T06:02:17.793Z,7.83
2018-10-09T06:04:45.205Z,7.83
2018-10-09T06:07:12.636Z,7.50
2018-10-09T06:09:40.026Z,8.23
2018-10-09T06:12:07.476Z,8.17
2018-10-09T06:14:34.891Z,7.77
2018-10-09T06:17:02.365Z,8.33
2018-10-09T06:19:29.815Z,8.23
2018-10-09T06:21:57.209Z,7.37
2018-10-09T06:24:24.641Z,6.80
2018-10-09T06:26:52.128Z,7.20
2018-10-09T06:29:19.533Z,7.17
2018-10-09T06:31:46.953Z,7.50
2018-10-09T06:34:14.353Z,8.07
2018-10-09T06:36:42.460Z,6.97
2018-10-09T06:39:10.786Z,6.50
2018-10-09T06:41:38.824Z,7.40
2018-10-09T06:44:06.288Z,7.13
2018-10-09T06:46:33.691Z,6.87
2018-10-09T06:49:01.081Z,7.20
2018-10-09T06:51:28.555Z,6.83
2018-10-09T06:53:56.156Z,6.67
2018-10-09T06:56:23.387Z,6.97
2018-10-09T06:58:50.806Z,7.00
2018-10-09T07:01:18.231Z,7.60
2018-10-09T07:03:45.636Z,6.83
2018-10-09T07:06:13.150Z,6.80
2018-10-09T07:08:40.541Z,7.30
2018-10-09T07:11:08.051Z,6.60
2018-10-09T07:13:35.430Z,6.37
2018-10-09T07:16:02.904Z,6.50
2018-10-09T07:18:30.396Z,6.87
2018-10-09T07:20:57.773Z,6.93
2018-10-09T07:23:25.212Z,7.83
2018-10-09T07:25:52.630Z,7.03
2018-10-09T07:28:20.097Z,6.50
2018-10-09T07:30:47.581Z,7.43
2018-10-09T07:33:14.985Z,7.00
2018-10-09T07:35:42.380Z,6.80
2018-10-09T07:38:09.810Z,6.90
2018-10-09T07:40:37.214Z,7.30
2018-10-09T07:43:04.645Z,5.90
2018-10-09T07:45:32.102Z,7.03
2018-10-09T07:47:59.604Z,6.60
2018-10-09T07:50:27.033Z,6.60
2018-10-09T07:52:54.551Z,6.23
2018-10-09T07:55:21.901Z,5.67
2018-10-09T07:57:49.356Z,6.10
2018-10-09T08:00:16.753Z,6.40
2018-10-09T08:02:44.149Z,5.47
2018-10-09T08:05:11.756Z,6.63
2018-10-09T08:07:39.127Z,6.90
2018-10-09T08:10:06.625Z,6.27
2018-10-09T08:12:34.062Z,6.57
2018-10-09T08:15:01.455Z,5.73
2018-10-09T08:17:28.896Z,6.80
2018-10-09T08:19:56.397Z,6.33
2018-10-09T08:22:23.855Z,7.10
2018-10-09T08:24:51.290Z,6.53
2018-10-09T08:27:18.750Z,6.93
2018-10-09T08:29:46.171Z,7.00
2018-10-09T08:32:13.588Z,7.37
2018-10-09T08:34:41.097Z,8.23
2018-10-09T08:37:08.497Z,7.33
2018-10-09T08:39:36.040Z,7.03
2018-10-09T08:42:03.453Z,7.73
2018-10-09T08:44:30.956Z,8.30
2018-10-09T08:46:58.365Z,7.97
2018-10-09T08:49:25.764Z,7.63
2018-10-09T08:51:53.206Z,7.37
2018-10-09T08:54:20.658Z,7.13
2018-10-09T08:56:48.088Z,7.27
2018-10-09T08:59:15.531Z,6.83
2018-10-09T09:01:42.953Z,7.33
2018-10-09T09:04:10.360Z,7.67
2018-10-09T09:06:37.858Z,6.87
2018-10-09T09:09:07.578Z,7.27
2018-10-09T09:11:34.975Z,6.97
2018-10-09T09:14:02.590Z,6.40
2018-10-09T09:16:30.022Z,6.10
2018-10-09T09:18:57.423Z,6.87
2018-10-09T09:21:24.836Z,6.27
2018-10-09T09:23:52.225Z,6.90
2018-10-09T09:26:19.633Z,6.17
2018-10-09T09:28:47.010Z,6.93
2018-10-09T09:31:14.429Z,7.27
2018-10-09T09:33:41.840Z,7.20
2018-10-09T09:36:09.298Z,7.07
2018-10-09T09:38:36.664Z,7.33
2018-10-09T09:41:04.163Z,7.97
2018-10-09T09:43:31.588Z,7.53
2018-10-09T09:45:59.052Z,6.37
2018-10-09T09:48:26.392Z,6.87
2018-10-09T09:50:53.885Z,6.97
2018-10-09T09:53:21.337Z,6.17
2018-10-09T09:55:48.732Z,6.90
2018-10-09T09:58:16.254Z,6.10
2018-10-09T10:00:49.409Z,6.30
2018-10-09T10:03:16.889Z,6.57
2018-10-09T10:05:44.318Z,5.53
2018-10-09T10:08:11.750Z,6.07
2018-10-09T10:10:39.180Z,5.93
2018-10-09T10:13:06.829Z,5.87
2018-10-09T10:15:34.345Z,5.83
2018-10-09T10:18:01.917Z,5.90
2018-10-09T10:20:29.367Z,6.03
2018-10-09T10:22:56.750Z,6.07
2018-10-09T10:25:24.189Z,5.47
2018-10-09T10:27:51.604Z,5.00
2018-10-09T10:30:19.084Z,6.40
2018-10-09T10:32:46.489Z,7.00
2018-10-09T10:35:13.961Z,6.63
2018-10-09T10:37:41.354Z,6.50
2018-10-09T10:40:08.806Z,7.07
2018-10-09T10:42:36.269Z,6.03
2018-10-09T10:45:03.735Z,6.27
2018-10-09T10:47:31.216Z,6.20
2018-10-09T10:49:58.658Z,6.90
2018-10-09T10:52:26.062Z,6.00
2018-10-09T10:54:53.527Z,5.87
2018-10-09T10:57:20.986Z,5.80
2018-10-09T10:59:48.405Z,5.53
2018-10-09T11:02:15.786Z,5.47
2018-10-09T11:04:43.225Z,5.47
2018-10-09T11:07:10.689Z,5.50
2018-10-09T11:09:38.069Z,5.63
2018-10-09T11:12:05.748Z,4.90
2018-10-09T11:14:33.222Z,5.30
2018-10-09T11:17:00.684Z,6.03
2018-10-09T11:19:28.101Z,4.93
2018-10-09T11:21:55.581Z,4.80
2018-10-09T11:24:23.041Z,5.00
2018-10-09T11:26:50.493Z,5.00
2018-10-09T11:29:17.921Z,4.80
2018-10-09T11:31:45.337Z,5.00
2018-10-09T11:34:12.759Z,4.87
2018-10-09T11:36:40.257Z,4.80
2018-10-09T11:39:08.169Z,4.83
2018-10-09T11:41:35.612Z,5.00
2018-10-09T11:44:03.019Z,4.50
2018-10-09T11:46:30.470Z,4.40
2018-10-09T11:48:57.921Z,4.30
2018-10-09T11:51:25.325Z,4.40
2018-10-09T11:53:52.833Z,4.00
2018-10-09T11:56:20.378Z,3.97
2018-10-09T11:58:47.780Z,4.07
2018-10-09T12:01:15.245Z,3.73
2018-10-09T12:03:42.697Z,4.30
2018-10-09T12:06:10.104Z,3.80
2018-10-09T12:08:37.570Z,3.47
2018-10-09T12:11:05.271Z,3.23
2018-10-09T12:13:32.684Z,3.20
2018-10-09T12:16:00.163Z,3.40
2018-10-09T12:18:27.540Z,3.60
2018-10-09T12:20:54.982Z,3.57
2018-10-09T12:23:22.404Z,3.70
2018-10-09T12:25:49.825Z,3.40
2018-10-09T12:28:17.253Z,3.50
2018-10-09T12:30:44.735Z,3.90
2018-10-09T12:33:12.130Z,3.33
2018-10-09T12:35:39.564Z,3.30
2018-10-09T12:38:06.981Z,3.17
2018-10-09T12:40:34.417Z,3.23
2018-10-09T12:43:01.849Z,2.83
2018-10-09T12:45:29.229Z,3.27
2018-10-09T12:47:56.663Z,3.57
2018-10-09T12:50:24.119Z,3.00
2018-10-09T12:52:51.560Z,3.47
2018-10-09T12:55:18.969Z,3.70
2018-10-09T12:57:46.430Z,2.80
2018-10-09T13:00:13.850Z,2.70
2018-10-09T13:02:41.277Z,3.30
2018-10-09T13:05:08.670Z,3.90
2018-10-09T13:07:36.142Z,3.60
2018-10-09T13:10:04.455Z,3.33
2018-10-09T13:12:31.839Z,3.27
2018-10-09T13:14:59.284Z,3.03
2018-10-09T13:17:26.709Z,3.10
2018-10-09T13:19:54.195Z,3.23
2018-10-09T13:22:22.137Z,3.50
2018-10-09T13:24:49.252Z,3.30
2018-10-09T13:27:16.781Z,3.50
2018-10-09T13:29:44.190Z,3.83
2018-10-09T13:32:11.632Z,3.77
2018-10-09T13:34:39.138Z,3.13
2018-10-09T13:37:06.543Z,3.47
2018-10-09T13:39:34.040Z,3.17
2018-10-09T13:42:01.481Z,3.30
2018-10-09T13:44:28.875Z,3.57
2018-10-09T13:46:56.314Z,3.13
2018-10-09T13:49:23.819Z,3.50
2018-10-09T13:51:51.365Z,3.30
2018-10-09T13:54:18.781Z,4.27
2018-10-09T13:56:46.286Z,4.47
2018-10-09T13:59:13.674Z,3.40
2018-10-09T14:01:41.230Z,3.80
2018-10-09T14:04:08.650Z,3.50
2018-10-09T14:06:36.061Z,3.47
2018-10-09T14:09:06.466Z,3.50
2018-10-09T14:11:33.898Z,3.50
2018-10-09T14:14:01.305Z,3.87
2018-10-09T14:16:28.731Z,4.10
2018-10-09T14:18:56.135Z,3.93
2018-10-09T14:21:23.618Z,3.87
2018-10-09T14:23:51.038Z,3.67
2018-10-09T14:26:18.497Z,3.80
2018-10-09T14:28:45.901Z,3.63
2018-10-09T14:31:13.290Z,3.80
2018-10-09T14:33:40.810Z,4.23
2018-10-09T14:36:08.261Z,3.90
2018-10-09T14:38:35.704Z,4.73
2018-10-09T14:41:03.158Z,4.20
2018-10-09T14:43:30.580Z,3.93
2018-10-09T14:45:57.953Z,3.60
2018-10-09T14:48:25.354Z,3.80
2018-10-09T14:50:52.776Z,4.10
2018-10-09T14:53:20.161Z,4.00
2018-10-09T14:55:47.680Z,4.50
2018-10-09T14:58:15.102Z,3.90
2018-10-09T15:00:42.545Z,4.30
2018-10-09T15:03:10.049Z,4.20
2018-10-09T15:05:37.624Z,3.93
2018-10-09T15:08:05.429Z,4.17
2018-10-09T15:10:32.825Z,4.90
2018-10-09T15:13:00.322Z,4.53
2018-10-09T15:15:27.749Z,4.40
2018-10-09T15:17:55.184Z,4.43
2018-10-09T15:20:22.640Z,4.13
2018-10-09T15:22:50.120Z,4.63
2018-10-09T15:25:17.497Z,4.50
2018-10-09T15:27:45.013Z,3.90
2018-10-09T15:30:12.397Z,4.53
2018-10-09T15:32:39.789Z,4.33
2018-10-09T15:35:07.287Z,4.40
2018-10-09T15:37:34.731Z,4.47
2018-10-09T15:40:02.182Z,4.13
2018-10-09T15:42:29.630Z,4.20
2018-10-09T15:44:57.211Z,4.47
2018-10-09T15:47:24.620Z,4.50
2018-10-09T15:49:52.032Z,4.63
2018-10-09T15:52:19.470Z,4.20
2018-10-09T15:54:46.907Z,4.20
2018-10-09T15:57:14.344Z,4.93
2018-10-09T15:59:41.762Z,4.67
2018-10-09T16:02:09.217Z,5.73
2018-10-09T16:04:36.680Z,5.10
2018-10-09T16:07:04.072Z,5.30
2018-10-09T16:09:31.527Z,5.50
2018-10-09T16:11:58.941Z,4.93
2018-10-09T16:14:26.356Z,5.23
2018-10-09T16:16:53.953Z,5.50
2018-10-09T16:19:21.464Z,4.87
2018-10-09T16:21:48.893Z,4.47
2018-10-09T16:24:16.350Z,5.13
2018-10-09T16:26:43.740Z,4.83
2018-10-09T16:29:11.174Z,4.97
2018-10-09T16:31:38.604Z,5.50
2018-10-09T16:34:06.093Z,5.10
2018-10-09T16:36:33.787Z,5.50
2018-10-09T16:39:01.245Z,5.23
2018-10-09T16:41:28.621Z,5.53
2018-10-09T16:43:56.096Z,5.13
2018-10-09T16:46:23.537Z,5.17
2018-10-09T16:48:50.987Z,5.30
2018-10-09T16:51:18.402Z,5.60
2018-10-09T16:53:45.861Z,5.27
2018-10-09T16:56:13.270Z,4.77
2018-10-09T16:58:40.714Z,5.17
2018-10-09T17:01:08.177Z,4.90
2018-10-09T17:03:35.618Z,5.40
2018-10-09T17:06:03.068Z,5.23
2018-10-09T17:08:30.477Z,5.50
2018-10-09T17:10:57.957Z,5.03
2018-10-09T17:13:25.377Z,5.60
2018-10-09T17:15:52.789Z,5.60
2018-10-09T17:18:20.251Z,5.77
2018-10-09T17:20:47.686Z,6.17
2018-10-09T17:23:15.109Z,5.70
2018-10-09T17:25:42.598Z,6.10
2018-10-09T17:28:09.972Z,5.70
2018-10-09T17:30:37.377Z,5.53
2018-10-09T17:33:04.857Z,5.57
2018-10-09T17:35:32.249Z,5.40
2018-10-09T17:37:59.656Z,5.90
2018-10-09T17:40:27.133Z,5.97
2018-10-09T17:42:54.612Z,5.70
2018-10-09T17:45:22.049Z,6.00
2018-10-09T17:47:49.491Z,5.87
2018-10-09T17:50:16.921Z,5.57
2018-10-09T17:52:44.325Z,5.83
2018-10-09T17:55:11.755Z,5.63
2018-10-09T17:57:39.198Z,6.13
2018-10-09T18:00:07.566Z,6.30
2018-10-09T18:02:35.048Z,6.33
2018-10-09T18:05:02.562Z,5.97
2018-10-09T18:07:30.106Z,4.93
2018-10-09T18:09:57.493Z,6.67
2018-10-09T18:12:24.923Z,6.17
2018-10-09T18:14:52.410Z,6.50
2018-10-09T18:17:19.915Z,6.03
2018-10-09T18:19:47.505Z,6.57
2018-10-09T18:22:14.980Z,6.20
2018-10-09T18:24:42.473Z,5.97
2018-10-09T18:27:10.057Z,17.10
2018-10-09T18:29:37.515Z,8.27
2018-10-09T18:32:04.887Z,13.83
2018-10-09T18:34:32.255Z,8.90
2018-10-09T18:36:59.691Z,6.47
2018-10-09T18:39:27.093Z,6.40
2018-10-09T18:41:54.772Z,6.47
2018-10-09T18:44:22.025Z,9.23
2018-10-09T18:46:49.437Z,11.73
2018-10-09T18:49:16.881Z,10.50
2018-10-09T18:51:44.320Z,6.27
2018-10-09T18:54:11.745Z,6.93
2018-10-09T18:56:39.201Z,6.97
2018-10-09T18:59:06.621Z,8.17
2018-10-09T19:01:34.107Z,7.07
2018-10-09T19:04:01.544Z,6.80
2018-10-09T19:06:28.999Z,6.33
2018-10-09T19:08:56.404Z,7.13
2018-10-09T19:11:25.768Z,6.83
2018-10-09T19:13:53.779Z,7.27
2018-10-09T19:16:21.355Z,7.40
2018-10-09T19:18:48.769Z,7.50
2018-10-09T19:21:16.406Z,6.60
2018-10-09T19:23:43.907Z,10.50
2018-10-09T19:26:11.294Z,7.50
2018-10-09T19:28:38.836Z,7.17
2018-10-09T19:31:06.293Z,7.30
2018-10-09T19:33:33.721Z,7.40
2018-10-09T19:36:01.102Z,7.20
2018-10-09T19:38:28.512Z,7.40
2018-10-09T19:40:55.956Z,9.90
2018-10-09T19:43:23.328Z,6.70
2018-10-09T19:45:50.712Z,8.10
2018-10-09T19:48:18.157Z,13.63
2018-10-09T19:50:45.655Z,12.13
2018-10-09T19:53:13.021Z,8.60
2018-10-09T19:55:40.544Z,7.77
2018-10-09T19:58:08.103Z,7.90
2018-10-09T20:00:35.641Z,7.77
2018-10-09T20:03:03.105Z,7.40
2018-10-09T20:05:30.518Z,7.50
2018-10-09T20:07:58.058Z,8.40
2018-10-09T20:10:25.480Z,8.23
2018-10-09T20:12:52.936Z,8.90
2018-10-09T20:15:20.340Z,9.63
2018-10-09T20:17:47.797Z,9.23
2018-10-09T20:20:15.205Z,7.47
2018-10-09T20:22:42.608Z,7.97
2018-10-09T20:25:10.016Z,8.60
2018-10-09T20:27:37.446Z,7.83
2018-10-09T20:30:04.930Z,8.47
2018-10-09T20:32:32.373Z,8.33
2018-10-09T20:34:59.802Z,8.50
2018-10-09T20:37:27.286Z,8.87
2018-10-09T20:39:54.727Z,8.20
2018-10-09T20:42:22.158Z,9.10
2018-10-09T20:44:49.706Z,7.73
2018-10-09T20:47:21.700Z,7.90
2018-10-09T20:49:49.142Z,7.73
2018-10-09T20:52:16.582Z,8.07
2018-10-09T20:54:44.043Z,8.03
2018-10-09T20:57:11.462Z,7.73
2018-10-09T20:59:38.877Z,7.63
2018-10-09T21:02:06.365Z,7.33
2018-10-09T21:04:33.773Z,7.77
2018-10-09T21:07:01.281Z,7.93
2018-10-09T21:09:28.727Z,7.80
2018-10-09T21:11:56.166Z,7.90
2018-10-09T21:14:23.885Z,7.03
2018-10-09T21:16:51.333Z,7.00
2018-10-09T21:19:18.778Z,7.67
2018-10-09T21:21:46.178Z,7.03
2018-10-09T21:24:13.884Z,6.93
2018-10-09T21:26:41.369Z,7.70
2018-10-09T21:29:08.869Z,7.23
2018-10-09T21:31:36.286Z,7.70
2018-10-09T21:34:03.784Z,7.23
2018-10-09T21:36:31.229Z,7.40
2018-10-09T21:38:58.701Z,7.03
2018-10-09T21:41:26.125Z,7.97
2018-10-09T21:43:53.502Z,7.90
2018-10-09T21:46:20.937Z,7.07
2018-10-09T21:48:48.413Z,7.90
2018-10-09T21:51:15.841Z,7.60
2018-10-09T21:53:43.241Z,8.63
2018-10-09T21:56:10.666Z,8.30
2018-10-09T21:58:38.169Z,9.53
2018-10-09T22:01:09.864Z,8.07
2018-10-09T22:03:37.505Z,9.17
2018-10-09T22:06:04.935Z,8.97
2018-10-09T22:08:32.326Z,8.63
2018-10-09T22:10:59.862Z,8.33
2018-10-09T22:13:27.513Z,8.83
2018-10-09T22:15:54.914Z,8.90
2018-10-09T22:18:22.326Z,8.30
2018-10-09T22:20:49.706Z,8.37
2018-10-09T22:23:17.146Z,8.03
2018-10-09T22:25:44.916Z,8.30
2018-10-09T22:28:12.429Z,7.17
2018-10-09T22:30:39.878Z,7.90
2018-10-09T22:33:07.503Z,8.80
2018-10-09T22:35:34.967Z,8.43
2018-10-09T22:38:02.404Z,8.00
2018-10-09T22:40:37.026Z,8.13
2018-10-09T22:43:04.622Z,7.53
2018-10-09T22:45:32.044Z,8.10
2018-10-09T22:47:59.529Z,7.13
2018-10-09T22:50:26.965Z,7.33
2018-10-09T22:52:54.378Z,6.97
2018-10-09T22:55:21.831Z,7.10
2018-10-09T22:57:49.233Z,8.20
2018-10-09T23:00:16.687Z,7.17
2018-10-09T23:02:44.114Z,7.17
2018-10-09T23:05:11.545Z,7.43
2018-10-09T23:07:39.368Z,7.10
2018-10-09T23:10:07.103Z,8.33
2018-10-09T23:12:34.533Z,7.50
2018-10-09T23:15:01.948Z,6.70
2018-10-09T23:17:29.656Z,7.10
2018-10-09T23:19:57.075Z,7.13
2018-10-09T23:22:24.443Z,6.43
2018-10-09T23:24:51.897Z,6.50
2018-10-09T23:27:19.307Z,6.40
2018-10-09T23:29:46.751Z,6.70
2018-10-09T23:32:14.179Z,6.83
2018-10-09T23:34:41.670Z,6.20
2018-10-09T23:37:09.154Z,6.20
2018-10-09T23:39:36.542Z,6.37
2018-10-09T23:42:04.001Z,6.10
2018-10-09T23:44:31.391Z,6.40
2018-10-09T23:46:58.831Z,6.33
2018-10-09T23:49:26.305Z,6.60
2018-10-09T23:51:53.730Z,5.63
2018-10-09T23:54:21.144Z,5.67
2018-10-09T23:56:48.652Z,6.23
2018-10-09T23:59:16.110Z,6.77
